sensor_id;sensor_type;location;lat;lon;timestamp;pressure;altitude;pressure_sealevel;temperature;humidity
74633;BME280;63139;52.018;8.552;2023-09-19T00:00:39;99637.28;;;14.94;100.00
74633;BME280;63139;52.018;8.552;2023-09-19T00:03:08;99630.97;;;14.89;100.00
74633;BME280;63139;52.018;8.552;2023-09-19T00:05:37;99636.50;;;14.87;100.00
74633;BME280;63139;52.018;8.552;2023-09-19T00:08:06;99638.56;;;14.85;100.00
74633;BME280;63139;52.018;8.552;2023-09-19T00:10:34;99643.91;;;14.85;100.00
74633;BME280;63139;52.018;8.552;2023-09-19T00:13:03;99638.78;;;14.84;100.00
74633;BME280;63139;52.018;8.552;2023-09-19T00:15:37;99645.97;;;14.83;100.00
74633;BME280;63139;52.018;8.552;2023-09-19T00:18:07;99660.31;;;14.82;100.00
74633;BME280;63139;52.018;8.552;2023-09-19T00:20:36;99652.56;;;14.81;100.00
74633;BME280;63139;52.018;8.552;2023-09-19T00:23:06;99661.38;;;14.81;100.00
74633;BME280;63139;52.018;8.552;2023-09-19T00:25:35;99662.78;;;14.84;100.00
74633;BME280;63139;52.018;8.552;2023-09-19T00:28:04;99666.19;;;14.91;100.00
74633;BME280;63139;52.018;8.552;2023-09-19T00:30:34;99665.34;;;14.97;100.00
74633;BME280;63139;52.018;8.552;2023-09-19T00:33:03;99664.50;;;15.03;100.00
74633;BME280;63139;52.018;8.552;2023-09-19T00:35:34;99675.31;;;15.08;100.00
74633;BME280;63139;52.018;8.552;2023-09-19T00:38:03;99678.13;;;15.13;100.00
74633;BME280;63139;52.018;8.552;2023-09-19T00:40:33;99676.47;;;15.19;100.00
74633;BME280;63139;52.018;8.552;2023-09-19T00:43:02;99673.97;;;15.24;100.00
74633;BME280;63139;52.018;8.552;2023-09-19T00:45:30;99675.13;;;15.28;100.00
74633;BME280;63139;52.018;8.552;2023-09-19T00:48:01;99678.41;;;15.30;100.00
74633;BME280;63139;52.018;8.552;2023-09-19T00:50:41;99675.53;;;15.31;100.00
74633;BME280;63139;52.018;8.552;2023-09-19T00:53:14;99685.38;;;15.31;100.00
74633;BME280;63139;52.018;8.552;2023-09-19T00:55:45;99676.56;;;15.30;100.00
74633;BME280;63139;52.018;8.552;2023-09-19T00:58:13;99685.81;;;15.28;100.00
74633;BME280;63139;52.018;8.552;2023-09-19T01:00:41;99686.06;;;15.26;100.00
74633;BME280;63139;52.018;8.552;2023-09-19T01:03:11;99694.22;;;15.31;100.00
74633;BME280;63139;52.018;8.552;2023-09-19T01:05:41;99697.84;;;15.37;100.00
74633;BME280;63139;52.018;8.552;2023-09-19T01:08:10;99691.06;;;15.41;100.00
74633;BME280;63139;52.018;8.552;2023-09-19T01:10:48;99691.06;;;15.41;100.00
74633;BME280;63139;52.018;8.552;2023-09-19T01:13:23;99683.84;;;15.41;100.00
74633;BME280;63139;52.018;8.552;2023-09-19T01:16:03;99693.47;;;15.42;100.00
74633;BME280;63139;52.018;8.552;2023-09-19T01:18:43;99698.88;;;15.36;100.00
74633;BME280;63139;52.018;8.552;2023-09-19T01:21:22;99696.47;;;15.28;100.00
74633;BME280;63139;52.018;8.552;2023-09-19T01:24:31;99706.56;;;15.26;100.00
74633;BME280;63139;52.018;8.552;2023-09-19T01:27:23;99705.09;;;15.30;100.00
74633;BME280;63139;52.018;8.552;2023-09-19T01:30:06;99705.03;;;15.36;100.00
74633;BME280;63139;52.018;8.552;2023-09-19T01:32:34;99701.06;;;15.45;100.00
74633;BME280;63139;52.018;8.552;2023-09-19T01:35:05;99708.00;;;15.53;100.00
74633;BME280;63139;52.018;8.552;2023-09-19T01:37:33;99711.63;;;15.59;100.00
74633;BME280;63139;52.018;8.552;2023-09-19T01:40:03;99719.56;;;15.65;100.00
74633;BME280;63139;52.018;8.552;2023-09-19T01:42:48;99716.84;;;15.72;100.00
74633;BME280;63139;52.018;8.552;2023-09-19T01:45:28;99718.66;;;15.78;100.00
74633;BME280;63139;52.018;8.552;2023-09-19T01:48:08;99723.09;;;15.84;100.00
74633;BME280;63139;52.018;8.552;2023-09-19T01:50:44;99732.91;;;15.90;100.00
74633;BME280;63139;52.018;8.552;2023-09-19T01:53:21;99727.34;;;15.91;100.00
74633;BME280;63139;52.018;8.552;2023-09-19T01:55:51;99727.69;;;15.95;100.00
74633;BME280;63139;52.018;8.552;2023-09-19T01:58:21;99725.63;;;15.97;100.00
74633;BME280;63139;52.018;8.552;2023-09-19T02:00:58;99744.53;;;15.96;100.00
74633;BME280;63139;52.018;8.552;2023-09-19T02:03:27;99734.69;;;15.96;100.00
74633;BME280;63139;52.018;8.552;2023-09-19T02:05:56;99743.94;;;15.93;100.00
74633;BME280;63139;52.018;8.552;2023-09-19T02:08:24;99742.75;;;15.89;100.00
74633;BME280;63139;52.018;8.552;2023-09-19T02:10:52;99740.09;;;15.89;100.00
74633;BME280;63139;52.018;8.552;2023-09-19T02:13:22;99744.59;;;15.89;100.00
74633;BME280;63139;52.018;8.552;2023-09-19T02:15:51;99759.59;;;15.90;100.00
74633;BME280;63139;52.018;8.552;2023-09-19T02:18:20;99758.56;;;15.91;100.00
74633;BME280;63139;52.018;8.552;2023-09-19T02:20:48;99750.56;;;15.91;100.00
74633;BME280;63139;52.018;8.552;2023-09-19T02:23:17;99751.16;;;15.93;100.00
74633;BME280;63139;52.018;8.552;2023-09-19T02:25:52;99746.25;;;15.90;100.00
74633;BME280;63139;52.018;8.552;2023-09-19T02:28:20;99750.34;;;15.93;100.00
74633;BME280;63139;52.018;8.552;2023-09-19T02:30:50;99754.03;;;15.91;100.00
74633;BME280;63139;52.018;8.552;2023-09-19T02:33:18;99759.94;;;15.93;100.00
74633;BME280;63139;52.018;8.552;2023-09-19T02:35:47;99753.00;;;15.93;100.00
74633;BME280;63139;52.018;8.552;2023-09-19T02:38:15;99754.59;;;15.93;100.00
74633;BME280;63139;52.018;8.552;2023-09-19T02:40:51;99749.28;;;15.93;100.00
74633;BME280;63139;52.018;8.552;2023-09-19T02:43:19;99754.59;;;15.93;100.00
74633;BME280;63139;52.018;8.552;2023-09-19T02:45:47;99749.06;;;15.95;100.00
74633;BME280;63139;52.018;8.552;2023-09-19T02:48:16;99750.91;;;15.95;100.00
74633;BME280;63139;52.018;8.552;2023-09-19T02:50:49;99756.31;;;15.88;100.00
74633;BME280;63139;52.018;8.552;2023-09-19T02:53:17;99759.25;;;15.80;100.00
74633;BME280;63139;52.018;8.552;2023-09-19T02:55:46;99760.38;;;15.72;100.00
74633;BME280;63139;52.018;8.552;2023-09-19T02:58:15;99761.41;;;15.71;100.00
74633;BME280;63139;52.018;8.552;2023-09-19T03:00:45;99770.06;;;15.67;100.00
74633;BME280;63139;52.018;8.552;2023-09-19T03:03:15;99761.09;;;15.61;100.00
74633;BME280;63139;52.018;8.552;2023-09-19T03:05:44;99767.66;;;15.59;100.00
74633;BME280;63139;52.018;8.552;2023-09-19T03:08:16;99774.06;;;15.51;100.00
74633;BME280;63139;52.018;8.552;2023-09-19T03:10:47;99768.56;;;15.46;100.00
74633;BME280;63139;52.018;8.552;2023-09-19T03:13:15;99771.09;;;15.41;100.00
74633;BME280;63139;52.018;8.552;2023-09-19T03:15:44;99774.38;;;15.36;100.00
74633;BME280;63139;52.018;8.552;2023-09-19T03:18:15;99778.06;;;15.35;100.00
74633;BME280;63139;52.018;8.552;2023-09-19T03:20:42;99781.00;;;15.34;100.00
74633;BME280;63139;52.018;8.552;2023-09-19T03:23:11;99784.44;;;15.34;100.00
74633;BME280;63139;52.018;8.552;2023-09-19T03:25:41;99783.66;;;15.34;100.00
74633;BME280;63139;52.018;8.552;2023-09-19T03:28:09;99783.25;;;15.30;100.00
74633;BME280;63139;52.018;8.552;2023-09-19T03:30:37;99790.50;;;15.23;100.00
74633;BME280;63139;52.018;8.552;2023-09-19T03:33:06;99803.03;;;15.16;100.00
74633;BME280;63139;52.018;8.552;2023-09-19T03:35:35;99798.38;;;15.11;100.00
74633;BME280;63139;52.018;8.552;2023-09-19T03:38:04;99801.25;;;15.10;100.00
74633;BME280;63139;52.018;8.552;2023-09-19T03:40:32;99795.72;;;15.05;100.00
74633;BME280;63139;52.018;8.552;2023-09-19T03:43:02;99794.88;;;15.04;100.00
74633;BME280;63139;52.018;8.552;2023-09-19T03:45:30;99791.44;;;15.04;100.00
74633;BME280;63139;52.018;8.552;2023-09-19T03:47:58;99780.38;;;15.00;100.00
74633;BME280;63139;52.018;8.552;2023-09-19T03:50:27;99795.97;;;14.97;100.00
74633;BME280;63139;52.018;8.552;2023-09-19T03:52:56;99787.59;;;14.93;100.00
74633;BME280;63139;52.018;8.552;2023-09-19T03:55:25;99791.47;;;14.91;100.00
74633;BME280;63139;52.018;8.552;2023-09-19T03:57:53;99799.28;;;14.92;100.00
74633;BME280;63139;52.018;8.552;2023-09-19T04:00:23;99798.66;;;14.90;100.00
74633;BME280;63139;52.018;8.552;2023-09-19T04:02:53;99799.28;;;14.92;100.00
74633;BME280;63139;52.018;8.552;2023-09-19T04:05:23;99805.06;;;14.89;100.00
74633;BME280;63139;52.018;8.552;2023-09-19T04:07:51;99800.78;;;14.82;100.00
74633;BME280;63139;52.018;8.552;2023-09-19T04:10:20;99800.78;;;14.75;100.00
74633;BME280;63139;52.018;8.552;2023-09-19T04:12:51;99801.47;;;14.64;100.00
74633;BME280;63139;52.018;8.552;2023-09-19T04:15:23;99795.97;;;14.52;100.00
74633;BME280;63139;52.018;8.552;2023-09-19T04:17:54;99801.75;;;14.43;100.00
74633;BME280;63139;52.018;8.552;2023-09-19T04:20:22;99802.97;;;14.33;100.00
74633;BME280;63139;52.018;8.552;2023-09-19T04:22:51;99801.97;;;14.21;100.00
74633;BME280;63139;52.018;8.552;2023-09-19T04:25:19;99807.09;;;14.10;100.00
74633;BME280;63139;52.018;8.552;2023-09-19T04:27:47;99809.56;;;14.05;100.00
74633;BME280;63139;52.018;8.552;2023-09-19T04:30:16;99817.97;;;14.02;100.00
74633;BME280;63139;52.018;8.552;2023-09-19T04:32:45;99817.16;;;14.01;100.00
74633;BME280;63139;52.018;8.552;2023-09-19T04:35:18;99826.38;;;13.98;100.00
74633;BME280;63139;52.018;8.552;2023-09-19T04:37:46;99833.75;;;13.96;100.00
74633;BME280;63139;52.018;8.552;2023-09-19T04:40:17;99833.13;;;13.94;100.00
74633;BME280;63139;52.018;8.552;2023-09-19T04:42:53;99833.13;;;13.88;100.00
74633;BME280;63139;52.018;8.552;2023-09-19T04:45:23;99832.31;;;13.81;100.00
74633;BME280;63139;52.018;8.552;2023-09-19T04:47:54;99836.00;;;13.73;100.00
74633;BME280;63139;52.018;8.552;2023-09-19T04:50:23;99841.13;;;13.68;100.00
74633;BME280;63139;52.018;8.552;2023-09-19T04:52:54;99843.97;;;13.60;100.00
74633;BME280;63139;52.018;8.552;2023-09-19T04:55:22;99840.09;;;13.56;100.00
74633;BME280;63139;52.018;8.552;2023-09-19T04:57:50;99849.28;;;13.53;100.00
74633;BME280;63139;52.018;8.552;2023-09-19T05:00:21;99851.94;;;13.53;100.00
74633;BME280;63139;52.018;8.552;2023-09-19T05:02:51;99864.81;;;13.56;100.00
74633;BME280;63139;52.018;8.552;2023-09-19T05:05:21;99876.28;;;13.64;100.00
74633;BME280;63139;52.018;8.552;2023-09-19T05:07:49;99876.34;;;13.70;100.00
74633;BME280;63139;52.018;8.552;2023-09-19T05:10:18;99869.16;;;13.71;100.00
74633;BME280;63139;52.018;8.552;2023-09-19T05:12:46;99870.19;;;13.70;100.00
74633;BME280;63139;52.018;8.552;2023-09-19T05:15:15;99869.75;;;13.66;100.00
74633;BME280;63139;52.018;8.552;2023-09-19T05:17:48;99871.78;;;13.64;100.00
74633;BME280;63139;52.018;8.552;2023-09-19T05:20:22;99861.97;;;13.58;100.00
74633;BME280;63139;52.018;8.552;2023-09-19T05:23:00;99862.78;;;13.52;100.00
74633;BME280;63139;52.018;8.552;2023-09-19T05:25:30;99858.28;;;13.46;100.00
74633;BME280;63139;52.018;8.552;2023-09-19T05:27:59;99871.56;;;13.39;100.00
74633;BME280;63139;52.018;8.552;2023-09-19T05:30:30;99877.47;;;13.35;100.00
74633;BME280;63139;52.018;8.552;2023-09-19T05:32:59;99898.34;;;13.31;100.00
74633;BME280;63139;52.018;8.552;2023-09-19T05:35:30;99896.06;;;13.28;100.00
74633;BME280;63139;52.018;8.552;2023-09-19T05:37:58;99908.94;;;13.25;100.00
74633;BME280;63139;52.018;8.552;2023-09-19T05:40:26;99918.56;;;13.26;100.00
74633;BME280;63139;52.018;8.552;2023-09-19T05:42:55;99922.06;;;13.26;100.00
74633;BME280;63139;52.018;8.552;2023-09-19T05:45:22;99917.94;;;13.24;100.00
74633;BME280;63139;52.018;8.552;2023-09-19T05:47:52;99926.75;;;13.24;100.00
74633;BME280;63139;52.018;8.552;2023-09-19T05:50:23;99915.28;;;13.24;100.00
74633;BME280;63139;52.018;8.552;2023-09-19T05:52:53;99919.97;;;13.21;100.00
74633;BME280;63139;52.018;8.552;2023-09-19T05:55:23;99926.13;;;13.22;100.00
74633;BME280;63139;52.018;8.552;2023-09-19T05:57:52;99925.91;;;13.24;100.00
74633;BME280;63139;52.018;8.552;2023-09-19T06:00:20;99932.69;;;13.26;100.00
74633;BME280;63139;52.018;8.552;2023-09-19T06:02:51;99938.00;;;13.26;100.00
74633;BME280;63139;52.018;8.552;2023-09-19T06:05:21;99942.91;;;13.29;100.00
74633;BME280;63139;52.018;8.552;2023-09-19T06:07:49;99935.56;;;13.31;100.00
74633;BME280;63139;52.018;8.552;2023-09-19T06:10:20;99932.72;;;13.33;100.00
74633;BME280;63139;52.018;8.552;2023-09-19T06:12:50;99924.94;;;13.38;100.00
74633;BME280;63139;52.018;8.552;2023-09-19T06:15:18;99927.22;;;13.41;100.00
74633;BME280;63139;52.018;8.552;2023-09-19T06:17:48;99918.81;;;13.44;100.00
74633;BME280;63139;52.018;8.552;2023-09-19T06:20:16;99921.09;;;13.47;99.91
74633;BME280;63139;52.018;8.552;2023-09-19T06:22:46;99915.34;;;13.50;99.68
74633;BME280;63139;52.018;8.552;2023-09-19T06:25:16;99918.25;;;13.55;99.33
74633;BME280;63139;52.018;8.552;2023-09-19T06:27:48;99913.75;;;13.62;99.04
74633;BME280;63139;52.018;8.552;2023-09-19T06:30:19;99911.94;;;13.69;98.57
74633;BME280;63139;52.018;8.552;2023-09-19T06:32:48;99922.38;;;13.77;98.40
74633;BME280;63139;52.018;8.552;2023-09-19T06:35:16;99924.84;;;13.85;97.77
74633;BME280;63139;52.018;8.552;2023-09-19T06:37:45;99919.94;;;13.95;96.59
74633;BME280;63139;52.018;8.552;2023-09-19T06:40:14;99917.91;;;14.11;96.13
74633;BME280;63139;52.018;8.552;2023-09-19T06:42:44;99923.63;;;14.34;95.19
74633;BME280;63139;52.018;8.552;2023-09-19T06:45:14;99919.13;;;14.54;94.24
74633;BME280;63139;52.018;8.552;2023-09-19T06:47:46;99921.16;;;14.72;93.54
74633;BME280;63139;52.018;8.552;2023-09-19T06:50:17;99907.38;;;14.88;92.14
74633;BME280;63139;52.018;8.552;2023-09-19T06:52:46;99922.66;;;15.06;91.09
74633;BME280;63139;52.018;8.552;2023-09-19T06:55:17;99923.03;;;15.23;89.99
74633;BME280;63139;52.018;8.552;2023-09-19T06:57:47;99911.47;;;15.35;87.92
74633;BME280;63139;52.018;8.552;2023-09-19T07:00:16;99924.94;;;15.53;87.36
74633;BME280;63139;52.018;8.552;2023-09-19T07:02:54;99919.94;;;15.64;86.39
74633;BME280;63139;52.018;8.552;2023-09-19T07:05:23;99921.53;;;15.71;86.63
74633;BME280;63139;52.018;8.552;2023-09-19T07:07:51;99933.00;;;15.78;84.67
74633;BME280;63139;52.018;8.552;2023-09-19T07:10:19;99941.81;;;15.85;84.17
74633;BME280;63139;52.018;8.552;2023-09-19T07:12:55;99939.31;;;15.90;85.31
74633;BME280;63139;52.018;8.552;2023-09-19T07:15:25;99939.13;;;15.85;83.85
74633;BME280;63139;52.018;8.552;2023-09-19T07:17:54;99944.81;;;15.96;84.95
74633;BME280;63139;52.018;8.552;2023-09-19T07:20:24;99942.34;;;15.94;84.69
74633;BME280;63139;52.018;8.552;2023-09-19T07:22:53;99950.81;;;15.91;84.59
74633;BME280;63139;52.018;8.552;2023-09-19T07:25:22;99969.09;;;15.87;84.30
74633;BME280;63139;52.018;8.552;2023-09-19T07:27:51;99959.44;;;15.86;84.62
74633;BME280;63139;52.018;8.552;2023-09-19T07:30:19;99964.78;;;15.86;85.13
74633;BME280;63139;52.018;8.552;2023-09-19T07:32:48;99964.63;;;15.81;85.15
74633;BME280;63139;52.018;8.552;2023-09-19T07:35:17;99976.53;;;15.79;84.99
74633;BME280;63139;52.018;8.552;2023-09-19T07:37:47;99974.72;;;15.73;85.19
74633;BME280;63139;52.018;8.552;2023-09-19T07:40:18;99975.16;;;15.70;84.74
74633;BME280;63139;52.018;8.552;2023-09-19T07:42:47;99966.13;;;15.71;85.43
74633;BME280;63139;52.018;8.552;2023-09-19T07:45:17;99969.56;;;15.78;85.60
74633;BME280;63139;52.018;8.552;2023-09-19T07:47:45;99968.09;;;15.82;85.48
74633;BME280;63139;52.018;8.552;2023-09-19T07:50:16;99962.34;;;15.78;85.65
74633;BME280;63139;52.018;8.552;2023-09-19T07:52:45;99963.38;;;15.84;85.67
74633;BME280;63139;52.018;8.552;2023-09-19T07:55:14;99971.72;;;15.94;86.15
74633;BME280;63139;52.018;8.552;2023-09-19T07:57:44;99975.75;;;16.03;85.56
74633;BME280;63139;52.018;8.552;2023-09-19T08:00:13;99969.97;;;16.13;86.21
74633;BME280;63139;52.018;8.552;2023-09-19T08:02:42;99968.00;;;16.26;85.87
74633;BME280;63139;52.018;8.552;2023-09-19T08:05:12;99972.88;;;16.36;84.65
74633;BME280;63139;52.018;8.552;2023-09-19T08:07:45;99967.81;;;16.46;83.65
74633;BME280;63139;52.018;8.552;2023-09-19T08:10:15;99958.69;;;16.60;83.50
74633;BME280;63139;52.018;8.552;2023-09-19T08:12:47;99971.25;;;16.78;83.23
74633;BME280;63139;52.018;8.552;2023-09-19T08:15:22;99963.28;;;16.96;82.29
74633;BME280;63139;52.018;8.552;2023-09-19T08:17:51;99955.22;;;17.15;81.47
74633;BME280;63139;52.018;8.552;2023-09-19T08:20:20;99959.38;;;17.29;80.95
74633;BME280;63139;52.018;8.552;2023-09-19T08:22:51;99958.38;;;17.41;80.35
74633;BME280;63139;52.018;8.552;2023-09-19T08:25:21;99962.50;;;17.62;80.35
74633;BME280;63139;52.018;8.552;2023-09-19T08:27:50;99967.66;;;17.75;79.09
74633;BME280;63139;52.018;8.552;2023-09-19T08:30:19;99974.09;;;17.86;77.83
74633;BME280;63139;52.018;8.552;2023-09-19T08:32:51;99975.91;;;18.04;77.24
74633;BME280;63139;52.018;8.552;2023-09-19T08:35:25;99973.84;;;18.17;75.10
74633;BME280;63139;52.018;8.552;2023-09-19T08:37:54;99980.88;;;18.30;75.38
74633;BME280;63139;52.018;8.552;2023-09-19T08:40:23;99987.16;;;18.47;73.41
74633;BME280;63139;52.018;8.552;2023-09-19T08:42:57;99984.03;;;18.50;72.99
74633;BME280;63139;52.018;8.552;2023-09-19T08:45:26;99991.28;;;18.61;73.46
74633;BME280;63139;52.018;8.552;2023-09-19T08:48:02;99989.44;;;18.74;72.89
74633;BME280;63139;52.018;8.552;2023-09-19T08:50:40;99990.97;;;18.81;71.93
74633;BME280;63139;52.018;8.552;2023-09-19T08:53:16;99988.72;;;18.90;71.37
74633;BME280;63139;52.018;8.552;2023-09-19T08:55:51;99996.31;;;18.93;71.42
74633;BME280;63139;52.018;8.552;2023-09-19T08:58:21;99988.34;;;18.98;71.78
74633;BME280;63139;52.018;8.552;2023-09-19T09:00:56;99994.91;;;19.02;70.47
74633;BME280;63139;52.018;8.552;2023-09-19T09:03:32;100002.47;;;19.05;70.33
74633;BME280;63139;52.018;8.552;2023-09-19T09:06:01;99990.22;;;18.97;70.51
74633;BME280;63139;52.018;8.552;2023-09-19T09:08:32;99991.28;;;19.08;69.69
74633;BME280;63139;52.018;8.552;2023-09-19T09:11:01;100002.47;;;19.17;69.78
74633;BME280;63139;52.018;8.552;2023-09-19T09:13:29;99996.88;;;19.18;69.06
74633;BME280;63139;52.018;8.552;2023-09-19T09:15:57;99998.25;;;19.21;68.34
74633;BME280;63139;52.018;8.552;2023-09-19T09:18:26;99990.28;;;19.37;68.76
74633;BME280;63139;52.018;8.552;2023-09-19T09:20:56;99993.78;;;19.38;67.29
74633;BME280;63139;52.018;8.552;2023-09-19T09:23:26;99992.16;;;19.37;66.84
74633;BME280;63139;52.018;8.552;2023-09-19T09:25:58;99989.91;;;19.46;67.94
74633;BME280;63139;52.018;8.552;2023-09-19T09:28:30;99984.44;;;19.52;65.95
74633;BME280;63139;52.018;8.552;2023-09-19T09:31:00;99985.34;;;19.46;67.46
74633;BME280;63139;52.018;8.552;2023-09-19T09:33:29;99989.22;;;19.50;66.71
74633;BME280;63139;52.018;8.552;2023-09-19T09:35:58;99985.47;;;19.51;67.21
74633;BME280;63139;52.018;8.552;2023-09-19T09:38:30;99996.31;;;19.56;66.53
74633;BME280;63139;52.018;8.552;2023-09-19T09:41:12;99987.13;;;19.52;66.56
74633;BME280;63139;52.018;8.552;2023-09-19T09:43:43;99988.53;;;19.55;65.83
74633;BME280;63139;52.018;8.552;2023-09-19T09:46:14;99990.38;;;19.43;64.88
74633;BME280;63139;52.018;8.552;2023-09-19T09:49:02;99986.56;;;19.38;66.44
74633;BME280;63139;52.018;8.552;2023-09-19T09:51:44;99982.81;;;19.39;66.87
74633;BME280;63139;52.018;8.552;2023-09-19T09:54:16;99984.59;;;19.34;65.96
74633;BME280;63139;52.018;8.552;2023-09-19T09:56:54;99987.28;;;19.22;66.63
74633;BME280;63139;52.018;8.552;2023-09-19T09:59:45;99993.72;;;19.10;65.71
74633;BME280;63139;52.018;8.552;2023-09-19T10:02:14;99985.09;;;19.08;66.18
74633;BME280;63139;52.018;8.552;2023-09-19T10:04:48;99986.13;;;19.07;66.48
74633;BME280;63139;52.018;8.552;2023-09-19T10:07:36;99984.16;;;19.02;67.14
74633;BME280;63139;52.018;8.552;2023-09-19T10:10:07;99969.69;;;18.91;65.50
74633;BME280;63139;52.018;8.552;2023-09-19T10:12:46;99973.91;;;18.99;66.46
74633;BME280;63139;52.018;8.552;2023-09-19T10:15:16;99987.44;;;19.04;66.87
74633;BME280;63139;52.018;8.552;2023-09-19T10:17:47;99976.47;;;18.94;64.52
74633;BME280;63139;52.018;8.552;2023-09-19T10:20:17;99986.00;;;19.13;65.55
74633;BME280;63139;52.018;8.552;2023-09-19T10:23:05;99990.78;;;19.23;64.46
74633;BME280;63139;52.018;8.552;2023-09-19T10:25:38;99991.81;;;19.33;65.10
74633;BME280;63139;52.018;8.552;2023-09-19T10:28:10;99981.50;;;19.54;66.17
74633;BME280;63139;52.018;8.552;2023-09-19T10:30:42;99986.69;;;19.72;65.56
74633;BME280;63139;52.018;8.552;2023-09-19T10:33:13;99985.69;;;19.90;62.83
74633;BME280;63139;52.018;8.552;2023-09-19T10:35:43;99989.69;;;20.04;62.42
74633;BME280;63139;52.018;8.552;2023-09-19T10:38:12;99990.94;;;20.13;62.29
74633;BME280;63139;52.018;8.552;2023-09-19T10:40:48;99986.28;;;20.37;62.15
74633;BME280;63139;52.018;8.552;2023-09-19T10:43:20;99989.44;;;20.50;62.01
74633;BME280;63139;52.018;8.552;2023-09-19T10:45:50;99986.00;;;20.55;60.45
74633;BME280;63139;52.018;8.552;2023-09-19T10:48:20;99990.56;;;20.54;60.65
74633;BME280;63139;52.018;8.552;2023-09-19T10:50:58;99997.34;;;20.57;59.63
74633;BME280;63139;52.018;8.552;2023-09-19T10:53:41;99983.66;;;20.59;59.81
74633;BME280;63139;52.018;8.552;2023-09-19T10:56:17;99973.72;;;20.59;60.29
74633;BME280;63139;52.018;8.552;2023-09-19T10:58:48;99978.81;;;20.77;60.81
74633;BME280;63139;52.018;8.552;2023-09-19T11:01:16;99976.88;;;20.73;59.05
74633;BME280;63139;52.018;8.552;2023-09-19T11:03:45;99972.22;;;20.68;59.21
74633;BME280;63139;52.018;8.552;2023-09-19T11:06:17;99962.81;;;20.87;60.27
74633;BME280;63139;52.018;8.552;2023-09-19T11:08:58;99966.75;;;21.18;59.13
74633;BME280;63139;52.018;8.552;2023-09-19T11:11:44;99971.84;;;20.98;57.56
74633;BME280;63139;52.018;8.552;2023-09-19T11:17:43;99967.31;;;21.20;56.62
74633;BME280;63139;52.018;8.552;2023-09-19T11:20:22;99955.28;;;21.28;57.67
74633;BME280;63139;52.018;8.552;2023-09-19T11:23:18;99963.50;;;21.16;54.42
74633;BME280;63139;52.018;8.552;2023-09-19T11:25:50;99965.44;;;21.21;57.81
74633;BME280;63139;52.018;8.552;2023-09-19T11:28:33;99963.66;;;21.10;57.54
74633;BME280;63139;52.018;8.552;2023-09-19T11:34:45;99953.16;;;20.91;56.38
74633;BME280;63139;52.018;8.552;2023-09-19T11:40:33;99956.22;;;21.39;56.86
74633;BME280;63139;52.018;8.552;2023-09-19T11:43:28;99945.81;;;21.47;52.61
74633;BME280;63139;52.018;8.552;2023-09-19T11:46:06;99941.59;;;21.56;55.46
74633;BME280;63139;52.018;8.552;2023-09-19T11:48:35;99942.84;;;21.71;55.56
74633;BME280;63139;52.018;8.552;2023-09-19T11:51:14;99940.59;;;21.89;52.49
74633;BME280;63139;52.018;8.552;2023-09-19T11:53:50;99940.19;;;22.02;54.35
74633;BME280;63139;52.018;8.552;2023-09-19T11:56:21;99946.25;;;22.15;55.04
74633;BME280;63139;52.018;8.552;2023-09-19T11:58:51;99947.19;;;22.30;53.20
74633;BME280;63139;52.018;8.552;2023-09-19T12:01:24;99947.97;;;22.31;52.64
74633;BME280;63139;52.018;8.552;2023-09-19T12:03:57;99959.88;;;22.30;52.75
74633;BME280;63139;52.018;8.552;2023-09-19T12:06:29;99969.56;;;22.31;52.06
74633;BME280;63139;52.018;8.552;2023-09-19T12:08:58;99955.59;;;22.39;52.24
74633;BME280;63139;52.018;8.552;2023-09-19T12:11:33;99953.78;;;22.50;53.10
74633;BME280;63139;52.018;8.552;2023-09-19T12:14:02;99959.28;;;22.60;53.26
74633;BME280;63139;52.018;8.552;2023-09-19T12:16:31;99964.38;;;22.56;53.64
74633;BME280;63139;52.018;8.552;2023-09-19T12:19:19;99948.06;;;22.41;50.53
74633;BME280;63139;52.018;8.552;2023-09-19T12:21:58;99941.81;;;22.35;52.13
74633;BME280;63139;52.018;8.552;2023-09-19T12:24:27;99942.03;;;22.29;52.34
74633;BME280;63139;52.018;8.552;2023-09-19T12:27:01;99936.00;;;22.17;52.70
74633;BME280;63139;52.018;8.552;2023-09-19T12:29:32;99933.00;;;22.13;53.24
74633;BME280;63139;52.018;8.552;2023-09-19T12:32:10;99947.81;;;21.84;50.78
74633;BME280;63139;52.018;8.552;2023-09-19T12:34:38;99929.09;;;21.72;53.15
74633;BME280;63139;52.018;8.552;2023-09-19T12:37:12;99933.28;;;21.85;53.34
74633;BME280;63139;52.018;8.552;2023-09-19T12:39:43;99921.88;;;21.78;52.62
74633;BME280;63139;52.018;8.552;2023-09-19T12:42:17;99931.78;;;21.72;53.59
74633;BME280;63139;52.018;8.552;2023-09-19T12:44:46;99920.09;;;21.61;53.20
74633;BME280;63139;52.018;8.552;2023-09-19T12:47:16;99925.78;;;21.65;53.33
74633;BME280;63139;52.018;8.552;2023-09-19T12:50:09;99918.06;;;21.74;52.83
74633;BME280;63139;52.018;8.552;2023-09-19T12:52:44;99911.84;;;21.73;53.21
74633;BME280;63139;52.018;8.552;2023-09-19T12:55:21;99914.59;;;21.51;52.51
74633;BME280;63139;52.018;8.552;2023-09-19T12:57:58;99912.28;;;21.33;53.12
74633;BME280;63139;52.018;8.552;2023-09-19T13:00:33;99915.41;;;21.25;53.29
74633;BME280;63139;52.018;8.552;2023-09-19T13:03:16;99913.06;;;21.12;52.81
74633;BME280;63139;52.018;8.552;2023-09-19T13:05:50;99916.69;;;21.01;54.49
74633;BME280;63139;52.018;8.552;2023-09-19T13:08:24;99914.19;;;21.16;54.21
74633;BME280;63139;52.018;8.552;2023-09-19T13:11:07;99910.00;;;21.03;53.16
74633;BME280;63139;52.018;8.552;2023-09-19T13:13:40;99913.50;;;20.82;54.75
74633;BME280;63139;52.018;8.552;2023-09-19T13:16:14;99904.03;;;20.79;52.77
74633;BME280;63139;52.018;8.552;2023-09-19T13:18:48;99892.31;;;20.69;53.90
74633;BME280;63139;52.018;8.552;2023-09-19T13:21:27;99899.44;;;20.58;52.72
74633;BME280;63139;52.018;8.552;2023-09-19T13:24:20;99871.72;;;20.58;54.72
74633;BME280;63139;52.018;8.552;2023-09-19T13:26:49;99896.41;;;20.54;55.55
74633;BME280;63139;52.018;8.552;2023-09-19T13:29:18;99895.94;;;20.58;54.91